sensor_id;sensor_type;location;lat;lon;timestamp;P1;durP1;ratioP1;P2;durP2;ratioP2
57744;SDS011;58941;50.168;4.410;2023-05-16T00:01:15;1.50;;;0.70;;
57744;SDS011;58941;50.168;4.410;2023-05-16T00:03:40;1.65;;;0.95;;
57744;SDS011;58941;50.168;4.410;2023-05-16T00:06:07;1.88;;;0.80;;
57744;SDS011;58941;50.168;4.410;2023-05-16T00:08:33;1.50;;;1.02;;
57744;SDS011;58941;50.168;4.410;2023-05-16T00:10:59;1.58;;;0.85;;
57744;SDS011;58941;50.168;4.410;2023-05-16T00:13:25;1.52;;;0.90;;
57744;SDS011;58941;50.168;4.410;2023-05-16T00:15:52;0.90;;;0.70;;
57744;SDS011;58941;50.168;4.410;2023-05-16T00:18:17;2.63;;;0.90;;
57744;SDS011;58941;50.168;4.410;2023-05-16T00:20:44;2.25;;;0.80;;
57744;SDS011;58941;50.168;4.410;2023-05-16T00:23:10;3.17;;;1.00;;
57744;SDS011;58941;50.168;4.410;2023-05-16T00:25:37;2.47;;;0.70;;
57744;SDS011;58941;50.168;4.410;2023-05-16T00:28:02;3.05;;;1.10;;
57744;SDS011;58941;50.168;4.410;2023-05-16T00:30:28;1.63;;;0.85;;
57744;SDS011;58941;50.168;4.410;2023-05-16T00:32:54;2.50;;;0.90;;
57744;SDS011;58941;50.168;4.410;2023-05-16T00:35:20;0.88;;;0.70;;
57744;SDS011;58941;50.168;4.410;2023-05-16T00:37:45;1.70;;;0.60;;
57744;SDS011;58941;50.168;4.410;2023-05-16T00:40:11;2.33;;;0.80;;
57744;SDS011;58941;50.168;4.410;2023-05-16T00:42:37;1.20;;;0.90;;
57744;SDS011;58941;50.168;4.410;2023-05-16T00:45:03;1.65;;;0.90;;
57744;SDS011;58941;50.168;4.410;2023-05-16T00:47:28;1.35;;;0.80;;
57744;SDS011;58941;50.168;4.410;2023-05-16T00:49:54;1.80;;;0.70;;
57744;SDS011;58941;50.168;4.410;2023-05-16T00:52:20;0.88;;;0.70;;
57744;SDS011;58941;50.168;4.410;2023-05-16T00:54:45;2.83;;;0.90;;
57744;SDS011;58941;50.168;4.410;2023-05-16T00:57:11;1.42;;;0.70;;
57744;SDS011;58941;50.168;4.410;2023-05-16T00:59:36;2.10;;;0.80;;
57744;SDS011;58941;50.168;4.410;2023-05-16T01:02:02;1.45;;;1.00;;
57744;SDS011;58941;50.168;4.410;2023-05-16T01:04:28;1.45;;;0.75;;
57744;SDS011;58941;50.168;4.410;2023-05-16T01:06:53;1.17;;;0.68;;
57744;SDS011;58941;50.168;4.410;2023-05-16T01:09:19;1.20;;;0.70;;
57744;SDS011;58941;50.168;4.410;2023-05-16T01:11:49;1.10;;;0.80;;
57744;SDS011;58941;50.168;4.410;2023-05-16T01:16:45;2.17;;;0.73;;
57744;SDS011;58941;50.168;4.410;2023-05-16T01:22:02;2.80;;;0.70;;
57744;SDS011;58941;50.168;4.410;2023-05-16T01:24:43;1.13;;;0.70;;
57744;SDS011;58941;50.168;4.410;2023-05-16T01:27:12;1.25;;;0.77;;
57744;SDS011;58941;50.168;4.410;2023-05-16T01:29:38;1.63;;;0.70;;
57744;SDS011;58941;50.168;4.410;2023-05-16T01:32:04;1.55;;;0.60;;
57744;SDS011;58941;50.168;4.410;2023-05-16T01:34:29;1.55;;;0.90;;
57744;SDS011;58941;50.168;4.410;2023-05-16T01:42:18;2.05;;;0.82;;
57744;SDS011;58941;50.168;4.410;2023-05-16T01:44:49;2.58;;;0.82;;
57744;SDS011;58941;50.168;4.410;2023-05-16T01:47:16;2.17;;;0.80;;
57744;SDS011;58941;50.168;4.410;2023-05-16T01:50:04;3.20;;;0.82;;
57744;SDS011;58941;50.168;4.410;2023-05-16T01:52:49;0.98;;;0.88;;
57744;SDS011;58941;50.168;4.410;2023-05-16T01:56:01;0.90;;;0.70;;
57744;SDS011;58941;50.168;4.410;2023-05-16T01:58:02;1.40;;;0.80;;
57744;SDS011;58941;50.168;4.410;2023-05-16T02:00:29;2.22;;;0.80;;
57744;SDS011;58941;50.168;4.410;2023-05-16T02:02:55;2.10;;;0.80;;
57744;SDS011;58941;50.168;4.410;2023-05-16T02:05:21;0.75;;;0.70;;
57744;SDS011;58941;50.168;4.410;2023-05-16T02:07:46;0.95;;;0.70;;
57744;SDS011;58941;50.168;4.410;2023-05-16T02:10:12;1.60;;;0.63;;
57744;SDS011;58941;50.168;4.410;2023-05-16T02:12:38;1.42;;;0.77;;
57744;SDS011;58941;50.168;4.410;2023-05-16T02:15:04;2.05;;;0.68;;
57744;SDS011;58941;50.168;4.410;2023-05-16T02:17:29;1.13;;;0.63;;
57744;SDS011;58941;50.168;4.410;2023-05-16T02:19:55;1.13;;;0.60;;
57744;SDS011;58941;50.168;4.410;2023-05-16T02:22:20;1.20;;;0.60;;
57744;SDS011;58941;50.168;4.410;2023-05-16T02:24:45;1.65;;;0.60;;
57744;SDS011;58941;50.168;4.410;2023-05-16T02:27:11;1.73;;;0.80;;
57744;SDS011;58941;50.168;4.410;2023-05-16T02:29:36;1.33;;;0.68;;
57744;SDS011;58941;50.168;4.410;2023-05-16T02:32:02;2.45;;;0.70;;
57744;SDS011;58941;50.168;4.410;2023-05-16T02:34:27;1.30;;;0.73;;
57744;SDS011;58941;50.168;4.410;2023-05-16T02:36:53;1.25;;;0.70;;
57744;SDS011;58941;50.168;4.410;2023-05-16T02:39:18;1.17;;;0.75;;
57744;SDS011;58941;50.168;4.410;2023-05-16T02:41:44;0.73;;;0.50;;
57744;SDS011;58941;50.168;4.410;2023-05-16T02:44:09;1.48;;;0.68;;
57744;SDS011;58941;50.168;4.410;2023-05-16T02:46:35;2.28;;;0.70;;
57744;SDS011;58941;50.168;4.410;2023-05-16T02:49:00;1.73;;;0.80;;
57744;SDS011;58941;50.168;4.410;2023-05-16T02:51:26;1.30;;;0.80;;
57744;SDS011;58941;50.168;4.410;2023-05-16T02:53:52;1.48;;;0.80;;
57744;SDS011;58941;50.168;4.410;2023-05-16T02:56:18;1.20;;;0.70;;
57744;SDS011;58941;50.168;4.410;2023-05-16T02:58:46;1.55;;;0.80;;
57744;SDS011;58941;50.168;4.410;2023-05-16T03:01:13;1.35;;;0.70;;
57744;SDS011;58941;50.168;4.410;2023-05-16T03:03:39;1.02;;;0.60;;
57744;SDS011;58941;50.168;4.410;2023-05-16T03:06:04;0.80;;;0.57;;
57744;SDS011;58941;50.168;4.410;2023-05-16T03:08:30;2.72;;;0.77;;
57744;SDS011;58941;50.168;4.410;2023-05-16T03:10:56;1.33;;;0.60;;
57744;SDS011;58941;50.168;4.410;2023-05-16T03:13:22;0.82;;;0.52;;
57744;SDS011;58941;50.168;4.410;2023-05-16T03:15:47;1.52;;;0.75;;
57744;SDS011;58941;50.168;4.410;2023-05-16T03:18:13;1.73;;;0.68;;
57744;SDS011;58941;50.168;4.410;2023-05-16T03:20:38;1.38;;;0.60;;
57744;SDS011;58941;50.168;4.410;2023-05-16T03:23:04;1.90;;;0.95;;
57744;SDS011;58941;50.168;4.410;2023-05-16T03:25:33;2.50;;;0.80;;
57744;SDS011;58941;50.168;4.410;2023-05-16T03:27:58;1.58;;;0.80;;
57744;SDS011;58941;50.168;4.410;2023-05-16T03:30:24;0.73;;;0.60;;
57744;SDS011;58941;50.168;4.410;2023-05-16T03:32:50;0.65;;;0.47;;
57744;SDS011;58941;50.168;4.410;2023-05-16T03:35:16;1.25;;;0.70;;
57744;SDS011;58941;50.168;4.410;2023-05-16T03:37:41;1.38;;;0.82;;
57744;SDS011;58941;50.168;4.410;2023-05-16T03:40:07;1.00;;;0.80;;
57744;SDS011;58941;50.168;4.410;2023-05-16T03:42:33;1.23;;;0.70;;
57744;SDS011;58941;50.168;4.410;2023-05-16T03:44:59;1.33;;;0.60;;
57744;SDS011;58941;50.168;4.410;2023-05-16T03:47:24;1.13;;;0.60;;
57744;SDS011;58941;50.168;4.410;2023-05-16T03:49:50;1.50;;;0.65;;
57744;SDS011;58941;50.168;4.410;2023-05-16T03:52:15;2.28;;;0.88;;
57744;SDS011;58941;50.168;4.410;2023-05-16T03:54:41;1.45;;;0.70;;
57744;SDS011;58941;50.168;4.410;2023-05-16T03:57:06;1.45;;;0.80;;
57744;SDS011;58941;50.168;4.410;2023-05-16T03:59:32;1.67;;;0.90;;
57744;SDS011;58941;50.168;4.410;2023-05-16T04:01:58;1.67;;;0.60;;
57744;SDS011;58941;50.168;4.410;2023-05-16T04:04:24;1.67;;;0.80;;
57744;SDS011;58941;50.168;4.410;2023-05-16T04:06:50;1.05;;;0.90;;
57744;SDS011;58941;50.168;4.410;2023-05-16T04:09:15;1.15;;;0.70;;
57744;SDS011;58941;50.168;4.410;2023-05-16T04:11:41;1.30;;;0.70;;
57744;SDS011;58941;50.168;4.410;2023-05-16T04:14:07;1.65;;;0.68;;
57744;SDS011;58941;50.168;4.410;2023-05-16T04:16:32;2.05;;;0.60;;
57744;SDS011;58941;50.168;4.410;2023-05-16T04:18:58;2.60;;;0.70;;
57744;SDS011;58941;50.168;4.410;2023-05-16T04:21:23;0.70;;;0.55;;
57744;SDS011;58941;50.168;4.410;2023-05-16T04:23:49;1.00;;;0.60;;
57744;SDS011;58941;50.168;4.410;2023-05-16T04:26:14;0.63;;;0.60;;
57744;SDS011;58941;50.168;4.410;2023-05-16T04:28:40;1.48;;;0.70;;
57744;SDS011;58941;50.168;4.410;2023-05-16T04:31:05;2.20;;;0.85;;
57744;SDS011;58941;50.168;4.410;2023-05-16T04:33:32;1.33;;;0.70;;
57744;SDS011;58941;50.168;4.410;2023-05-16T04:35:58;1.35;;;0.50;;
57744;SDS011;58941;50.168;4.410;2023-05-16T04:38:24;0.82;;;0.60;;
57744;SDS011;58941;50.168;4.410;2023-05-16T04:40:50;1.70;;;0.70;;
57744;SDS011;58941;50.168;4.410;2023-05-16T04:43:16;1.63;;;0.77;;
57744;SDS011;58941;50.168;4.410;2023-05-16T04:45:42;1.38;;;0.70;;
57744;SDS011;58941;50.168;4.410;2023-05-16T04:48:07;1.02;;;0.65;;
57744;SDS011;58941;50.168;4.410;2023-05-16T04:50:33;1.35;;;0.70;;
57744;SDS011;58941;50.168;4.410;2023-05-16T04:52:58;1.98;;;0.90;;
57744;SDS011;58941;50.168;4.410;2023-05-16T04:55:24;0.80;;;0.60;;
57744;SDS011;58941;50.168;4.410;2023-05-16T04:57:49;0.93;;;0.57;;
57744;SDS011;58941;50.168;4.410;2023-05-16T05:00:15;1.65;;;0.65;;
57744;SDS011;58941;50.168;4.410;2023-05-16T05:02:41;2.25;;;0.75;;
57744;SDS011;58941;50.168;4.410;2023-05-16T05:05:08;0.93;;;0.70;;
57744;SDS011;58941;50.168;4.410;2023-05-16T05:07:33;0.95;;;0.57;;
57744;SDS011;58941;50.168;4.410;2023-05-16T05:09:59;2.38;;;0.93;;
57744;SDS011;58941;50.168;4.410;2023-05-16T05:12:24;1.17;;;0.75;;
57744;SDS011;58941;50.168;4.410;2023-05-16T05:14:52;1.80;;;0.80;;
57744;SDS011;58941;50.168;4.410;2023-05-16T05:17:18;1.90;;;0.75;;
57744;SDS011;58941;50.168;4.410;2023-05-16T05:19:44;1.10;;;0.50;;
57744;SDS011;58941;50.168;4.410;2023-05-16T05:22:09;1.02;;;0.85;;
57744;SDS011;58941;50.168;4.410;2023-05-16T05:24:35;1.35;;;0.60;;
57744;SDS011;58941;50.168;4.410;2023-05-16T05:27:01;2.20;;;0.93;;
57744;SDS011;58941;50.168;4.410;2023-05-16T05:29:26;1.58;;;0.70;;
57744;SDS011;58941;50.168;4.410;2023-05-16T05:31:51;2.95;;;0.90;;
57744;SDS011;58941;50.168;4.410;2023-05-16T05:34:17;2.85;;;1.20;;
57744;SDS011;58941;50.168;4.410;2023-05-16T05:36:43;3.28;;;1.83;;
57744;SDS011;58941;50.168;4.410;2023-05-16T05:39:08;3.80;;;1.40;;
57744;SDS011;58941;50.168;4.410;2023-05-16T05:41:34;4.63;;;1.25;;
57744;SDS011;58941;50.168;4.410;2023-05-16T05:44:00;3.20;;;1.10;;
57744;SDS011;58941;50.168;4.410;2023-05-16T05:46:25;3.60;;;1.00;;
57744;SDS011;58941;50.168;4.410;2023-05-16T05:48:51;4.78;;;1.40;;
57744;SDS011;58941;50.168;4.410;2023-05-16T05:51:16;3.28;;;0.80;;
57744;SDS011;58941;50.168;4.410;2023-05-16T05:53:42;3.13;;;1.00;;
57744;SDS011;58941;50.168;4.410;2023-05-16T05:56:08;3.63;;;1.00;;
57744;SDS011;58941;50.168;4.410;2023-05-16T05:58:34;3.53;;;1.40;;
57744;SDS011;58941;50.168;4.410;2023-05-16T06:00:59;4.88;;;1.30;;
57744;SDS011;58941;50.168;4.410;2023-05-16T06:03:25;4.40;;;1.20;;
57744;SDS011;58941;50.168;4.410;2023-05-16T06:05:50;3.10;;;1.13;;
57744;SDS011;58941;50.168;4.410;2023-05-16T06:08:16;6.45;;;1.92;;
57744;SDS011;58941;50.168;4.410;2023-05-16T06:10:41;5.32;;;1.60;;
57744;SDS011;58941;50.168;4.410;2023-05-16T06:13:07;8.20;;;1.73;;
57744;SDS011;58941;50.168;4.410;2023-05-16T06:15:32;9.50;;;1.38;;
57744;SDS011;58941;50.168;4.410;2023-05-16T06:17:59;8.65;;;2.03;;
57744;SDS011;58941;50.168;4.410;2023-05-16T06:20:24;13.50;;;2.15;;
57744;SDS011;58941;50.168;4.410;2023-05-16T06:22:50;12.48;;;2.28;;
57744;SDS011;58941;50.168;4.410;2023-05-16T06:25:16;14.05;;;1.67;;
57744;SDS011;58941;50.168;4.410;2023-05-16T06:27:41;8.93;;;1.58;;
57744;SDS011;58941;50.168;4.410;2023-05-16T06:30:07;8.82;;;1.55;;
57744;SDS011;58941;50.168;4.410;2023-05-16T06:32:33;6.55;;;1.63;;
57744;SDS011;58941;50.168;4.410;2023-05-16T06:34:58;8.02;;;1.80;;
57744;SDS011;58941;50.168;4.410;2023-05-16T06:37:24;6.53;;;1.60;;
57744;SDS011;58941;50.168;4.410;2023-05-16T06:39:50;4.93;;;1.65;;
57744;SDS011;58941;50.168;4.410;2023-05-16T06:42:16;7.05;;;1.50;;
57744;SDS011;58941;50.168;4.410;2023-05-16T06:44:41;8.45;;;1.95;;
57744;SDS011;58941;50.168;4.410;2023-05-16T06:47:06;8.73;;;2.13;;
57744;SDS011;58941;50.168;4.410;2023-05-16T06:49:32;12.65;;;2.60;;
57744;SDS011;58941;50.168;4.410;2023-05-16T06:51:58;7.30;;;1.95;;
57744;SDS011;58941;50.168;4.410;2023-05-16T06:54:23;7.57;;;1.88;;
57744;SDS011;58941;50.168;4.410;2023-05-16T06:56:49;14.40;;;3.03;;
57744;SDS011;58941;50.168;4.410;2023-05-16T06:59:15;19.83;;;3.35;;
57744;SDS011;58941;50.168;4.410;2023-05-16T07:01:40;14.77;;;3.10;;
57744;SDS011;58941;50.168;4.410;2023-05-16T07:04:06;13.93;;;2.85;;
57744;SDS011;58941;50.168;4.410;2023-05-16T07:06:31;14.45;;;3.08;;
57744;SDS011;58941;50.168;4.410;2023-05-16T07:08:57;14.45;;;2.85;;
57744;SDS011;58941;50.168;4.410;2023-05-16T07:11:23;15.85;;;3.38;;
57744;SDS011;58941;50.168;4.410;2023-05-16T07:13:48;19.02;;;4.25;;
57744;SDS011;58941;50.168;4.410;2023-05-16T07:16:14;13.27;;;3.20;;
57744;SDS011;58941;50.168;4.410;2023-05-16T07:18:39;14.30;;;3.22;;
57744;SDS011;58941;50.168;4.410;2023-05-16T07:21:05;17.52;;;3.35;;
57744;SDS011;58941;50.168;4.410;2023-05-16T07:23:30;11.82;;;3.10;;
57744;SDS011;58941;50.168;4.410;2023-05-16T07:25:56;19.35;;;4.05;;
57744;SDS011;58941;50.168;4.410;2023-05-16T07:28:22;14.63;;;3.75;;
57744;SDS011;58941;50.168;4.410;2023-05-16T07:30:47;17.60;;;3.33;;
57744;SDS011;58941;50.168;4.410;2023-05-16T07:33:13;18.58;;;4.75;;
57744;SDS011;58941;50.168;4.410;2023-05-16T07:35:39;22.60;;;3.97;;
57744;SDS011;58941;50.168;4.410;2023-05-16T07:38:04;12.73;;;3.28;;
57744;SDS011;58941;50.168;4.410;2023-05-16T07:40:30;23.75;;;5.13;;
57744;SDS011;58941;50.168;4.410;2023-05-16T07:42:55;28.02;;;4.35;;
57744;SDS011;58941;50.168;4.410;2023-05-16T07:45:21;45.00;;;8.05;;
57744;SDS011;58941;50.168;4.410;2023-05-16T07:47:46;47.30;;;8.10;;
57744;SDS011;58941;50.168;4.410;2023-05-16T07:50:12;49.85;;;9.63;;
57744;SDS011;58941;50.168;4.410;2023-05-16T07:52:37;99.05;;;18.58;;
57744;SDS011;58941;50.168;4.410;2023-05-16T07:55:03;58.17;;;12.13;;
57744;SDS011;58941;50.168;4.410;2023-05-16T07:57:28;47.75;;;9.13;;
57744;SDS011;58941;50.168;4.410;2023-05-16T07:59:54;40.47;;;8.73;;
57744;SDS011;58941;50.168;4.410;2023-05-16T08:02:20;45.80;;;8.57;;
57744;SDS011;58941;50.168;4.410;2023-05-16T08:04:46;40.15;;;8.05;;
57744;SDS011;58941;50.168;4.410;2023-05-16T08:07:13;36.50;;;7.72;;
57744;SDS011;58941;50.168;4.410;2023-05-16T08:09:38;45.53;;;9.88;;
57744;SDS011;58941;50.168;4.410;2023-05-16T08:12:04;57.05;;;10.55;;
57744;SDS011;58941;50.168;4.410;2023-05-16T08:14:30;59.22;;;11.27;;
57744;SDS011;58941;50.168;4.410;2023-05-16T08:16:57;45.92;;;10.15;;
57744;SDS011;58941;50.168;4.410;2023-05-16T08:19:22;55.85;;;10.68;;
57744;SDS011;58941;50.168;4.410;2023-05-16T08:21:48;63.35;;;12.88;;
57744;SDS011;58941;50.168;4.410;2023-05-16T08:24:13;61.40;;;13.93;;
57744;SDS011;58941;50.168;4.410;2023-05-16T08:26:39;44.75;;;12.20;;
57744;SDS011;58941;50.168;4.410;2023-05-16T08:29:04;50.33;;;11.85;;
57744;SDS011;58941;50.168;4.410;2023-05-16T08:31:30;44.40;;;10.50;;
57744;SDS011;58941;50.168;4.410;2023-05-16T08:33:56;34.42;;;8.35;;
57744;SDS011;58941;50.168;4.410;2023-05-16T08:36:22;28.70;;;7.82;;
57744;SDS011;58941;50.168;4.410;2023-05-16T08:38:48;26.02;;;7.63;;
57744;SDS011;58941;50.168;4.410;2023-05-16T08:41:14;50.35;;;14.55;;
57744;SDS011;58941;50.168;4.410;2023-05-16T08:43:39;99.47;;;30.40;;
57744;SDS011;58941;50.168;4.410;2023-05-16T08:46:05;57.90;;;16.63;;
57744;SDS011;58941;50.168;4.410;2023-05-16T08:48:31;37.50;;;9.43;;
57744;SDS011;58941;50.168;4.410;2023-05-16T08:50:57;25.70;;;6.43;;
57744;SDS011;58941;50.168;4.410;2023-05-16T08:53:26;21.13;;;5.95;;
57744;SDS011;58941;50.168;4.410;2023-05-16T08:55:57;19.00;;;5.05;;
57744;SDS011;58941;50.168;4.410;2023-05-16T08:58:23;18.67;;;4.90;;
57744;SDS011;58941;50.168;4.410;2023-05-16T09:00:49;14.82;;;4.05;;
57744;SDS011;58941;50.168;4.410;2023-05-16T09:03:15;24.90;;;5.45;;
57744;SDS011;58941;50.168;4.410;2023-05-16T09:05:41;20.13;;;5.35;;
57744;SDS011;58941;50.168;4.410;2023-05-16T09:08:07;26.90;;;6.97;;
57744;SDS011;58941;50.168;4.410;2023-05-16T09:10:33;23.98;;;5.88;;
57744;SDS011;58941;50.168;4.410;2023-05-16T09:12:58;21.75;;;5.28;;
57744;SDS011;58941;50.168;4.410;2023-05-16T09:15:27;16.70;;;4.10;;
57744;SDS011;58941;50.168;4.410;2023-05-16T09:17:55;13.93;;;4.03;;
57744;SDS011;58941;50.168;4.410;2023-05-16T09:20:24;22.48;;;4.25;;
57744;SDS011;58941;50.168;4.410;2023-05-16T09:22:51;14.00;;;3.92;;
57744;SDS011;58941;50.168;4.410;2023-05-16T09:25:17;16.48;;;3.78;;
57744;SDS011;58941;50.168;4.410;2023-05-16T09:27:44;17.48;;;3.55;;
57744;SDS011;58941;50.168;4.410;2023-05-16T09:30:12;17.60;;;4.03;;
57744;SDS011;58941;50.168;4.410;2023-05-16T09:32:41;13.30;;;3.50;;
57744;SDS011;58941;50.168;4.410;2023-05-16T09:35:07;14.63;;;3.20;;
57744;SDS011;58941;50.168;4.410;2023-05-16T09:37:35;12.07;;;3.25;;
57744;SDS011;58941;50.168;4.410;2023-05-16T09:40:00;9.30;;;2.60;;
57744;SDS011;58941;50.168;4.410;2023-05-16T09:42:27;6.50;;;2.25;;
57744;SDS011;58941;50.168;4.410;2023-05-16T09:44:53;10.10;;;2.28;;
57744;SDS011;58941;50.168;4.410;2023-05-16T09:47:19;9.15;;;2.22;;
57744;SDS011;58941;50.168;4.410;2023-05-16T09:49:45;10.32;;;2.63;;
57744;SDS011;58941;50.168;4.410;2023-05-16T09:52:12;4.32;;;1.77;;
57744;SDS011;58941;50.168;4.410;2023-05-16T09:54:38;8.32;;;2.05;;
57744;SDS011;58941;50.168;4.410;2023-05-16T09:57:03;9.40;;;2.55;;
57744;SDS011;58941;50.168;4.410;2023-05-16T09:59:29;11.38;;;2.33;;
57744;SDS011;58941;50.168;4.410;2023-05-16T10:01:58;18.55;;;3.10;;
57744;SDS011;58941;50.168;4.410;2023-05-16T10:04:24;6.88;;;2.47;;
57744;SDS011;58941;50.168;4.410;2023-05-16T10:06:50;7.60;;;1.80;;
57744;SDS011;58941;50.168;4.410;2023-05-16T10:09:17;8.50;;;1.90;;
57744;SDS011;58941;50.168;4.410;2023-05-16T10:11:42;4.90;;;1.77;;
57744;SDS011;58941;50.168;4.410;2023-05-16T10:14:10;6.13;;;1.58;;
57744;SDS011;58941;50.168;4.410;2023-05-16T10:16:36;6.43;;;1.90;;
57744;SDS011;58941;50.168;4.410;2023-05-16T10:19:02;6.47;;;1.73;;
57744;SDS011;58941;50.168;4.410;2023-05-16T10:21:28;7.07;;;1.77;;
57744;SDS011;58941;50.168;4.410;2023-05-16T10:23:55;4.78;;;1.40;;
57744;SDS011;58941;50.168;4.410;2023-05-16T10:26:21;8.23;;;1.67;;
57744;SDS011;58941;50.168;4.410;2023-05-16T10:28:47;4.53;;;1.30;;
57744;SDS011;58941;50.168;4.410;2023-05-16T10:31:14;5.88;;;1.85;;
57744;SDS011;58941;50.168;4.410;2023-05-16T10:33:40;5.20;;;1.52;;
57744;SDS011;58941;50.168;4.410;2023-05-16T10:36:09;6.80;;;2.10;;
57744;SDS011;58941;50.168;4.410;2023-05-16T10:38:36;6.57;;;1.40;;
57744;SDS011;58941;50.168;4.410;2023-05-16T10:41:02;10.13;;;2.00;;
57744;SDS011;58941;50.168;4.410;2023-05-16T10:43:28;3.67;;;1.35;;
57744;SDS011;58941;50.168;4.410;2023-05-16T10:46:07;6.10;;;1.40;;
57744;SDS011;58941;50.168;4.410;2023-05-16T10:48:37;5.47;;;1.55;;
57744;SDS011;58941;50.168;4.410;2023-05-16T10:51:04;4.93;;;1.63;;
57744;SDS011;58941;50.168;4.410;2023-05-16T10:54:03;3.40;;;1.75;;
57744;SDS011;58941;50.168;4.410;2023-05-16T10:56:30;8.27;;;1.70;;
57744;SDS011;58941;50.168;4.410;2023-05-16T10:58:57;4.15;;;1.40;;
57744;SDS011;58941;50.168;4.410;2023-05-16T11:01:23;3.85;;;1.30;;
57744;SDS011;58941;50.168;4.410;2023-05-16T11:06:24;5.15;;;1.73;;
57744;SDS011;58941;50.168;4.410;2023-05-16T11:08:57;8.82;;;2.45;;
57744;SDS011;58941;50.168;4.410;2023-05-16T11:11:43;8.50;;;2.08;;
57744;SDS011;58941;50.168;4.410;2023-05-16T11:16:46;7.50;;;2.13;;
57744;SDS011;58941;50.168;4.410;2023-05-16T11:19:12;8.10;;;1.98;;
57744;SDS011;58941;50.168;4.410;2023-05-16T11:24:27;19.42;;;4.53;;
57744;SDS011;58941;50.168;4.410;2023-05-16T11:26:53;23.25;;;5.53;;
57744;SDS011;58941;50.168;4.410;2023-05-16T11:29:19;27.08;;;6.18;;
57744;SDS011;58941;50.168;4.410;2023-05-16T11:31:45;16.20;;;3.92;;
57744;SDS011;58941;50.168;4.410;2023-05-16T11:34:12;38.17;;;8.23;;
57744;SDS011;58941;50.168;4.410;2023-05-16T11:36:37;225.55;;;38.13;;
57744;SDS011;58941;50.168;4.410;2023-05-16T11:39:07;223.07;;;41.50;;
57744;SDS011;58941;50.168;4.410;2023-05-16T11:41:34;106.93;;;21.48;;
57744;SDS011;58941;50.168;4.410;2023-05-16T11:44:00;100.35;;;15.77;;
57744;SDS011;58941;50.168;4.410;2023-05-16T11:46:25;85.65;;;13.43;;
57744;SDS011;58941;50.168;4.410;2023-05-16T11:48:54;57.72;;;10.65;;
57744;SDS011;58941;50.168;4.410;2023-05-16T11:51:19;36.00;;;7.10;;
57744;SDS011;58941;50.168;4.410;2023-05-16T11:53:46;38.03;;;7.88;;
57744;SDS011;58941;50.168;4.410;2023-05-16T11:56:14;49.40;;;9.85;;
57744;SDS011;58941;50.168;4.410;2023-05-16T11:58:40;54.70;;;10.07;;
57744;SDS011;58941;50.168;4.410;2023-05-16T12:01:06;54.83;;;8.80;;
57744;SDS011;58941;50.168;4.410;2023-05-16T12:03:32;43.33;;;9.40;;
57744;SDS011;58941;50.168;4.410;2023-05-16T12:05:59;49.38;;;9.48;;
57744;SDS011;58941;50.168;4.410;2023-05-16T12:08:25;43.65;;;8.43;;
57744;SDS011;58941;50.168;4.410;2023-05-16T12:10:51;54.03;;;10.68;;
57744;SDS011;58941;50.168;4.410;2023-05-16T12:13:17;36.22;;;7.80;;
57744;SDS011;58941;50.168;4.410;2023-05-16T12:15:43;34.58;;;9.57;;
57744;SDS011;58941;50.168;4.410;2023-05-16T12:18:09;50.28;;;9.98;;
57744;SDS011;58941;50.168;4.410;2023-05-16T12:20:35;80.57;;;14.27;;
57744;SDS011;58941;50.168;4.410;2023-05-16T12:23:01;77.75;;;14.98;;
57744;SDS011;58941;50.168;4.410;2023-05-16T12:25:33;58.45;;;12.35;;
57744;SDS011;58941;50.168;4.410;2023-05-16T12:28:02;58.67;;;12.35;;
57744;SDS011;58941;50.168;4.410;2023-05-16T12:30:29;51.90;;;11.10;;
57744;SDS011;58941;50.168;4.410;2023-05-16T12:32:55;48.08;;;9.88;;
57744;SDS011;58941;50.168;4.410;2023-05-16T12:35:22;41.65;;;8.70;;
57744;SDS011;58941;50.168;4.410;2023-05-16T12:37:48;39.28;;;8.98;;
57744;SDS011;58941;50.168;4.410;2023-05-16T12:40:13;21.67;;;5.40;;
57744;SDS011;58941;50.168;4.410;2023-05-16T12:42:42;26.73;;;6.20;;
57744;SDS011;58941;50.168;4.410;2023-05-16T12:45:15;29.25;;;5.32;;
57744;SDS011;58941;50.168;4.410;2023-05-16T12:47:44;16.13;;;3.65;;
57744;SDS011;58941;50.168;4.410;2023-05-16T12:50:13;18.67;;;5.10;;
57744;SDS011;58941;50.168;4.410;2023-05-16T12:52:47;16.58;;;3.85;;
57744;SDS011;58941;50.168;4.410;2023-05-16T12:55:16;30.90;;;7.18;;
57744;SDS011;58941;50.168;4.410;2023-05-16T12:57:43;17.67;;;3.38;;
57744;SDS011;58941;50.168;4.410;2023-05-16T13:00:10;9.63;;;3.28;;
57744;SDS011;58941;50.168;4.410;2023-05-16T13:02:37;20.42;;;4.78;;
57744;SDS011;58941;50.168;4.410;2023-05-16T13:05:03;25.33;;;5.38;;
57744;SDS011;58941;50.168;4.410;2023-05-16T13:07:28;26.30;;;5.50;;
57744;SDS011;58941;50.168;4.410;2023-05-16T13:09:55;31.38;;;6.53;;
57744;SDS011;58941;50.168;4.410;2023-05-16T13:12:20;24.80;;;5.13;;
57744;SDS011;58941;50.168;4.410;2023-05-16T13:14:51;26.73;;;4.97;;
57744;SDS011;58941;50.168;4.410;2023-05-16T13:17:17;25.27;;;4.85;;
57744;SDS011;58941;50.168;4.410;2023-05-16T13:19:42;20.15;;;4.80;;
57744;SDS011;58941;50.168;4.410;2023-05-16T13:22:08;27.50;;;5.45;;
57744;SDS011;58941;50.168;4.410;2023-05-16T13:24:33;17.20;;;5.13;;
57744;SDS011;58941;50.168;4.410;2023-05-16T13:26:59;27.95;;;5.28;;
57744;SDS011;58941;50.168;4.410;2023-05-16T13:29:24;20.88;;;4.90;;
57744;SDS011;58941;50.168;4.410;2023-05-16T13:31:50;17.38;;;3.83;;
57744;SDS011;58941;50.168;4.410;2023-05-16T13:34:16;13.43;;;3.88;;
57744;SDS011;58941;50.168;4.410;2023-05-16T13:36:42;15.68;;;3.88;;
57744;SDS011;58941;50.168;4.410;2023-05-16T13:39:07;19.42;;;4.18;;
57744;SDS011;58941;50.168;4.410;2023-05-16T13:41:33;17.00;;;4.55;;
57744;SDS011;58941;50.168;4.410;2023-05-16T13:44:02;18.77;;;4.60;;
57744;SDS011;58941;50.168;4.410;2023-05-16T13:46:28;14.65;;;3.58;;
57744;SDS011;58941;50.168;4.410;2023-05-16T13:48:54;13.50;;;2.88;;
57744;SDS011;58941;50.168;4.410;2023-05-16T13:51:19;10.07;;;2.60;;
57744;SDS011;58941;50.168;4.410;2023-05-16T13:53:45;10.52;;;3.45;;
57744;SDS011;58941;50.168;4.410;2023-05-16T13:56:10;10.65;;;2.67;;
57744;SDS011;58941;50.168;4.410;2023-05-16T13:58:36;10.23;;;2.72;;
57744;SDS011;58941;50.168;4.410;2023-05-16T14:01:01;7.35;;;2.25;;
57744;SDS011;58941;50.168;4.410;2023-05-16T14:03:27;10.15;;;3.10;;
57744;SDS011;58941;50.168;4.410;2023-05-16T14:05:53;10.63;;;2.10;;
57744;SDS011;58941;50.168;4.410;2023-05-16T14:08:18;8.77;;;2.45;;
57744;SDS011;58941;50.168;4.410;2023-05-16T14:10:44;7.13;;;2.22;;
57744;SDS011;58941;50.168;4.410;2023-05-16T14:13:09;10.65;;;2.75;;
57744;SDS011;58941;50.168;4.410;2023-05-16T14:15:35;7.70;;;2.30;;
57744;SDS011;58941;50.168;4.410;2023-05-16T14:18:01;8.70;;;2.60;;
57744;SDS011;58941;50.168;4.410;2023-05-16T14:20:28;5.95;;;1.58;;
57744;SDS011;58941;50.168;4.410;2023-05-16T14:22:53;8.05;;;2.38;;
57744;SDS011;58941;50.168;4.410;2023-05-16T14:25:19;8.02;;;2.00;;
57744;SDS011;58941;50.168;4.410;2023-05-16T14:27:44;5.28;;;1.90;;
57744;SDS011;58941;50.168;4.410;2023-05-16T14:30:10;5.80;;;1.92;;
57744;SDS011;58941;50.168;4.410;2023-05-16T14:32:36;9.73;;;2.05;;
57744;SDS011;58941;50.168;4.410;2023-05-16T14:35:01;5.80;;;1.58;;
57744;SDS011;58941;50.168;4.410;2023-05-16T14:37:29;6.07;;;1.80;;
57744;SDS011;58941;50.168;4.410;2023-05-16T14:39:55;5.15;;;1.85;;
57744;SDS011;58941;50.168;4.410;2023-05-16T14:42:21;7.95;;;2.60;;
57744;SDS011;58941;50.168;4.410;2023-05-16T14:44:47;5.10;;;1.70;;
57744;SDS011;58941;50.168;4.410;2023-05-16T14:47:12;5.95;;;2.00;;
57744;SDS011;58941;50.168;4.410;2023-05-16T14:49:38;7.85;;;2.35;;
57744;SDS011;58941;50.168;4.410;2023-05-16T14:52:04;6.28;;;1.85;;
57744;SDS011;58941;50.168;4.410;2023-05-16T14:54:30;4.60;;;1.55;;